Time;durP1;ratioP1;P1;durP2;ratioP2;P2;SDS_P1;SDS_P2;PMS_P1;PMS_P2;Temp;Humidity;BMP_temperature;BMP_pressure;BME280_temperature;BME280_humidity;BME280_pressure;Samples;Min_cycle;Max_cycle;Signal;HPM_P1;HPM_P2
2021/01/07 00:01:53;;;;;;;9.70;5.60;;;;;;;;;;5092210;28;20055;-61
2021/01/07 00:04:18;;;;;;;8.27;4.83;;;;;;;;;;5092987;28;20402;-60
2021/01/07 00:06:44;;;;;;;10.70;4.60;;;;;;;;;;5092616;28;20024;-58
2021/01/07 00:09:09;;;;;;;11.60;4.73;;;;;;;;;;5092706;28;20024;-61
2021/01/07 00:11:35;;;;;;;12.50;4.87;;;;;;;;;;5093233;28;20113;-62
2021/01/07 00:14:00;;;;;;;7.93;4.40;;;;;;;;;;5057146;28;20035;-61
2021/01/07 00:16:25;;;;;;;12.57;4.43;;;;;;;;;;5092550;28;20043;-61
2021/01/07 00:18:51;;;;;;;16.13;5.13;;;;;;;;;;5092048;28;20201;-61
2021/01/07 00:21:16;;;;;;;10.83;4.83;;;;;;;;;;5075295;28;20032;-63
2021/01/07 00:23:41;;;;;;;10.80;5.00;;;;;;;;;;5075106;28;20485;-61
2021/01/07 00:26:07;;;;;;;10.97;5.57;;;;;;;;;;5092576;28;20096;-61
2021/01/07 00:28:32;;;;;;;10.73;5.03;;;;;;;;;;5074886;28;20103;-62
2021/01/07 00:30:58;;;;;;;9.10;4.83;;;;;;;;;;5057537;28;20032;-62
2021/01/07 00:33:23;;;;;;;11.75;4.45;;;;;;;;;;5092716;28;20047;-62
2021/01/07 00:35:49;;;;;;;11.33;5.23;;;;;;;;;;5092214;28;20032;-60
2021/01/07 00:38:14;;;;;;;7.77;4.13;;;;;;;;;;5074899;28;20086;-62
2021/01/07 00:40:40;;;;;;;12.05;5.28;;;;;;;;;;5092863;28;20040;-62
2021/01/07 00:43:05;;;;;;;11.93;5.03;;;;;;;;;;5073756;28;20517;-62
2021/01/07 00:45:31;;;;;;;9.07;4.20;;;;;;;;;;5074843;28;20089;-63
2021/01/07 00:47:56;;;;;;;9.07;4.95;;;;;;;;;;5092029;28;20329;-62
2021/01/07 00:50:23;;;;;;;9.82;5.78;;;;;;;;;;5074716;28;20047;-62
2021/01/07 00:52:48;;;;;;;9.23;5.13;;;;;;;;;;5091666;28;20035;-56
2021/01/07 00:55:15;;;;;;;15.37;5.87;;;;;;;;;;5092313;28;20086;-61
2021/01/07 00:57:41;;;;;;;9.07;5.80;;;;;;;;;;5073815;28;20077;-64
2021/01/07 01:00:07;;;;;;;12.90;5.13;;;;;;;;;;5073682;28;20399;-62
2021/01/07 01:02:33;;;;;;;10.90;4.80;;;;;;;;;;5074545;28;20028;-62
2021/01/07 01:04:58;;;;;;;7.70;5.00;;;;;;;;;;5091834;28;20432;-62
2021/01/07 01:07:24;;;;;;;13.20;5.23;;;;;;;;;;5092569;28;20055;-62
2021/01/07 01:09:49;;;;;;;16.97;5.80;;;;;;;;;;5091972;28;20039;-62
2021/01/07 01:12:14;;;;;;;13.83;5.33;;;;;;;;;;5092113;28;20077;-62
2021/01/07 01:14:40;;;;;;;14.37;6.37;;;;;;;;;;5092019;28;20052;-62
2021/01/07 01:17:07;;;;;;;13.07;6.63;;;;;;;;;;5073456;28;20028;-62
2021/01/07 01:19:32;;;;;;;10.10;5.50;;;;;;;;;;5057516;28;20024;-61
2021/01/07 01:21:58;;;;;;;13.53;5.63;;;;;;;;;;5073380;28;20509;-62
2021/01/07 01:24:23;;;;;;;17.30;5.83;;;;;;;;;;5092088;28;20024;-62
2021/01/07 01:26:55;;;;;;;12.30;5.57;;;;;;;;;;5092039;28;20020;-57
2021/01/07 01:29:21;;;;;;;8.23;5.10;;;;;;;;;;5091977;28;20028;-62
2021/01/07 01:31:46;;;;;;;10.27;5.65;;;;;;;;;;5073999;28;20361;-62
2021/01/07 01:34:12;;;;;;;11.97;5.90;;;;;;;;;;5072899;28;20376;-61
2021/01/07 01:36:37;;;;;;;15.27;5.47;;;;;;;;;;5057124;28;20028;-62
2021/01/07 01:39:03;;;;;;;10.50;5.20;;;;;;;;;;5090912;28;20248;-62
2021/01/07 01:41:28;;;;;;;9.13;5.10;;;;;;;;;;5073839;28;20484;-62
2021/01/07 01:43:53;;;;;;;12.10;6.30;;;;;;;;;;5090824;28;20034;-56
2021/01/07 01:46:19;;;;;;;10.70;5.47;;;;;;;;;;5073592;28;20028;-61
2021/01/07 01:48:44;;;;;;;10.90;5.57;;;;;;;;;;5091926;28;20055;-61
2021/01/07 01:51:10;;;;;;;13.00;5.60;;;;;;;;;;5072814;28;20146;-62
2021/01/07 01:53:38;;;;;;;12.17;4.90;;;;;;;;;;5091975;28;20127;-61
2021/01/07 01:56:05;;;;;;;11.88;5.82;;;;;;;;;;5090628;28;20028;-62
2021/01/07 01:58:32;;;;;;;9.95;5.00;;;;;;;;;;5091732;28;20027;-62
2021/01/07 02:00:57;;;;;;;8.38;4.35;;;;;;;;;;5090759;28;20028;-61
2021/01/07 02:03:23;;;;;;;12.57;4.40;;;;;;;;;;5073364;28;20147;-62
2021/01/07 02:05:49;;;;;;;10.37;4.67;;;;;;;;;;5091361;28;20428;-61
2021/01/07 02:08:14;;;;;;;9.20;4.40;;;;;;;;;;5090594;28;20028;-62
2021/01/07 02:10:40;;;;;;;5.63;3.35;;;;;;;;;;5073052;28;20040;-61
2021/01/07 02:13:06;;;;;;;7.25;4.18;;;;;;;;;;5090230;28;20024;-61
2021/01/07 02:15:38;;;;;;;7.28;3.85;;;;;;;;;;5069602;28;20477;-61
2021/01/07 02:18:03;;;;;;;10.40;3.97;;;;;;;;;;5070258;28;20037;-61
2021/01/07 02:20:29;;;;;;;7.77;3.83;;;;;;;;;;5071081;28;20502;-61
2021/01/07 02:22:55;;;;;;;9.17;3.57;;;;;;;;;;5070474;28;20078;-57
2021/01/07 02:25:21;;;;;;;8.20;4.25;;;;;;;;;;5070379;28;20035;-61
2021/01/07 02:27:46;;;;;;;6.68;3.45;;;;;;;;;;5070792;28;20021;-61
2021/01/07 02:30:12;;;;;;;11.23;4.37;;;;;;;;;;5068778;28;20062;-62
2021/01/07 02:32:37;;;;;;;7.18;3.35;;;;;;;;;;5071012;28;20396;-63
2021/01/07 02:35:03;;;;;;;6.63;3.27;;;;;;;;;;5069836;28;20032;-61
2021/01/07 02:37:28;;;;;;;7.60;3.43;;;;;;;;;;5069572;28;20036;-61
2021/01/07 02:39:54;;;;;;;8.50;3.97;;;;;;;;;;5069584;28;20028;-62
2021/01/07 02:42:19;;;;;;;7.43;3.07;;;;;;;;;;5068666;28;20021;-61
2021/01/07 02:44:44;;;;;;;8.27;3.13;;;;;;;;;;5070981;28;20044;-62
2021/01/07 02:47:10;;;;;;;5.83;2.87;;;;;;;;;;5069742;28;20460;-61
2021/01/07 02:49:35;;;;;;;7.33;3.93;;;;;;;;;;5070691;28;20051;-62
2021/01/07 02:52:00;;;;;;;7.23;2.77;;;;;;;;;;5068648;28;20028;-59
2021/01/07 02:54:28;;;;;;;6.00;3.27;;;;;;;;;;5069531;28;20090;-61
2021/01/07 02:56:53;;;;;;;5.63;2.65;;;;;;;;;;5070408;28;20357;-62
2021/01/07 02:59:18;;;;;;;6.63;3.43;;;;;;;;;;5070038;28;20051;-61
2021/01/07 03:01:44;;;;;;;6.53;3.97;;;;;;;;;;5070411;28;20464;-62
2021/01/07 03:04:10;;;;;;;4.72;2.70;;;;;;;;;;5070117;28;20090;-61
2021/01/07 03:06:35;;;;;;;11.13;3.50;;;;;;;;;;5070675;28;20029;-61
2021/01/07 03:09:00;;;;;;;6.00;3.10;;;;;;;;;;5069704;28;20051;-60
2021/01/07 03:11:26;;;;;;;4.93;3.13;;;;;;;;;;5070588;28;20029;-61
2021/01/07 03:13:51;;;;;;;11.40;3.83;;;;;;;;;;5068989;28;20090;-60
2021/01/07 03:16:16;;;;;;;8.87;3.50;;;;;;;;;;5084911;28;20138;-61
2021/01/07 03:18:42;;;;;;;8.23;2.80;;;;;;;;;;5072446;28;20032;-62
2021/01/07 03:21:07;;;;;;;6.23;3.10;;;;;;;;;;5091644;28;20077;-61
2021/01/07 03:23:32;;;;;;;7.47;3.27;;;;;;;;;;5094721;28;20119;-62
2021/01/07 03:25:58;;;;;;;8.50;4.00;;;;;;;;;;5094604;28;20457;-62
2021/01/07 03:28:24;;;;;;;5.77;3.10;;;;;;;;;;5075557;28;20028;-62
2021/01/07 03:30:49;;;;;;;9.63;3.40;;;;;;;;;;5094331;28;20024;-62
2021/01/07 03:33:14;;;;;;;9.47;4.20;;;;;;;;;;5093254;28;20173;-61
2021/01/07 03:35:40;;;;;;;7.33;3.57;;;;;;;;;;5094790;28;20064;-62
2021/01/07 03:38:05;;;;;;;7.27;3.50;;;;;;;;;;5075179;28;20032;-61
2021/01/07 03:40:30;;;;;;;8.37;4.60;;;;;;;;;;5094257;28;20121;-62
2021/01/07 03:42:56;;;;;;;8.90;4.47;;;;;;;;;;5094165;28;20028;-62
2021/01/07 03:45:21;;;;;;;8.83;4.57;;;;;;;;;;5093197;28;20455;-62
2021/01/07 03:47:46;;;;;;;10.33;4.93;;;;;;;;;;5094104;28;20471;-61
2021/01/07 03:50:12;;;;;;;9.00;3.90;;;;;;;;;;5074916;28;20384;-62
2021/01/07 03:52:38;;;;;;;6.47;3.73;;;;;;;;;;5094079;28;20046;-61
2021/01/07 03:55:03;;;;;;;9.20;4.63;;;;;;;;;;5093479;28;20036;-57
2021/01/07 03:57:29;;;;;;;7.88;4.68;;;;;;;;;;5093836;28;20477;-61
2021/01/07 03:59:54;;;;;;;11.57;4.43;;;;;;;;;;5093718;28;20032;-62
2021/01/07 04:02:19;;;;;;;10.07;4.13;;;;;;;;;;5092987;28;20107;-61
2021/01/07 04:04:45;;;;;;;8.73;4.63;;;;;;;;;;5075744;28;20032;-62
2021/01/07 04:07:10;;;;;;;8.90;4.40;;;;;;;;;;5092548;28;20491;-62
2021/01/07 04:09:35;;;;;;;10.87;4.93;;;;;;;;;;5075573;28;20020;-61
2021/01/07 04:12:01;;;;;;;11.67;4.97;;;;;;;;;;5093705;28;20031;-61
2021/01/07 04:14:26;;;;;;;22.50;6.87;;;;;;;;;;5092453;28;20043;-62
2021/01/07 04:16:51;;;;;;;13.40;6.60;;;;;;;;;;5058760;28;20127;-62
2021/01/07 04:19:17;;;;;;;14.60;6.17;;;;;;;;;;5092428;28;20130;-62
2021/01/07 04:21:45;;;;;;;17.13;5.97;;;;;;;;;;5075129;28;20067;-62
2021/01/07 04:24:11;;;;;;;11.85;5.22;;;;;;;;;;5092262;28;20496;-61
2021/01/07 04:26:38;;;;;;;15.13;7.03;;;;;;;;;;5093320;28;20269;-61
2021/01/07 04:29:03;;;;;;;12.87;6.10;;;;;;;;;;5075037;28;20032;-61
2021/01/07 04:31:29;;;;;;;12.43;5.53;;;;;;;;;;5091670;28;20317;-61
2021/01/07 04:33:54;;;;;;;16.23;6.10;;;;;;;;;;5092335;28;20139;-61
2021/01/07 04:36:19;;;;;;;11.23;5.13;;;;;;;;;;5092139;28;20027;-62
2021/01/07 04:38:45;;;;;;;14.87;6.57;;;;;;;;;;5075132;28;20036;-62
2021/01/07 04:41:10;;;;;;;22.97;8.27;;;;;;;;;;5074021;28;20028;-60
2021/01/07 04:43:36;;;;;;;23.90;8.97;;;;;;;;;;5074741;28;20036;-61
2021/01/07 04:46:01;;;;;;;21.70;8.30;;;;;;;;;;5092941;28;20032;-62
2021/01/07 04:48:27;;;;;;;17.93;7.70;;;;;;;;;;5057191;28;20188;-61
2021/01/07 04:50:53;;;;;;;19.42;8.23;;;;;;;;;;5092939;28;20363;-62
2021/01/07 04:53:18;;;;;;;15.43;7.30;;;;;;;;;;5091889;28;20040;-61
2021/01/07 04:55:43;;;;;;;21.63;7.90;;;;;;;;;;5074557;28;20025;-61
2021/01/07 04:58:09;;;;;;;17.70;8.70;;;;;;;;;;5057408;28;20456;-56
2021/01/07 05:00:34;;;;;;;23.43;8.57;;;;;;;;;;5092172;28;20036;-62
2021/01/07 05:03:00;;;;;;;18.50;8.67;;;;;;;;;;5092400;28;20378;-62
2021/01/07 05:05:25;;;;;;;19.83;8.20;;;;;;;;;;5091939;28;20036;-62
2021/01/07 05:07:52;;;;;;;18.63;8.17;;;;;;;;;;5092889;28;20115;-63
2021/01/07 05:10:18;;;;;;;17.33;7.93;;;;;;;;;;5073356;28;20028;-62
2021/01/07 05:12:43;;;;;;;21.17;7.30;;;;;;;;;;5092485;28;20430;-62
2021/01/07 05:15:09;;;;;;;17.97;8.60;;;;;;;;;;5073673;28;20054;-56
2021/01/07 05:17:34;;;;;;;18.83;7.38;;;;;;;;;;5091912;28;20032;-62
2021/01/07 05:20:00;;;;;;;15.60;6.50;;;;;;;;;;5073918;28;20062;-62
2021/01/07 05:22:35;;;;;;;14.80;7.07;;;;;;;;;;5073369;28;20088;-61
2021/01/07 05:25:00;;;;;;;12.77;6.75;;;;;;;;;;5091895;28;20032;-63
2021/01/07 05:27:26;;;;;;;16.53;6.30;;;;;;;;;;5091336;28;20412;-61
2021/01/07 05:29:57;;;;;;;11.50;6.53;;;;;;;;;;5091843;28;20030;-61
2021/01/07 05:32:32;;;;;;;14.65;6.40;;;;;;;;;;5072981;28;20031;-62
2021/01/07 05:34:58;;;;;;;13.02;6.82;;;;;;;;;;5091959;28;20056;-61
2021/01/07 05:37:23;;;;;;;14.80;6.30;;;;;;;;;;5072822;28;20062;-61
2021/01/07 05:39:49;;;;;;;15.70;6.70;;;;;;;;;;5073760;28;20527;-61
2021/01/07 05:42:15;;;;;;;14.85;6.22;;;;;;;;;;5091244;28;20099;-54
2021/01/07 05:44:43;;;;;;;12.73;6.60;;;;;;;;;;5073223;28;20124;-61
2021/01/07 05:47:08;;;;;;;20.33;6.35;;;;;;;;;;5091647;28;20043;-62
2021/01/07 05:49:36;;;;;;;14.10;6.70;;;;;;;;;;5091057;28;20047;-63
2021/01/07 05:52:07;;;;;;;15.48;7.40;;;;;;;;;;5091658;28;20039;-62
2021/01/07 05:54:33;;;;;;;15.75;6.80;;;;;;;;;;5090532;28;20046;-61
2021/01/07 05:57:03;;;;;;;17.17;7.68;;;;;;;;;;5091639;28;20471;-62
2021/01/07 05:59:31;;;;;;;16.48;7.40;;;;;;;;;;5072502;28;20056;-62
2021/01/07 06:01:56;;;;;;;19.67;8.43;;;;;;;;;;5073274;28;20032;-62
2021/01/07 06:04:22;;;;;;;17.00;7.78;;;;;;;;;;5090479;28;20071;-61
2021/01/07 06:06:48;;;;;;;24.03;8.03;;;;;;;;;;5073316;28;20067;-61
2021/01/07 06:09:13;;;;;;;14.10;7.60;;;;;;;;;;5073309;28;20030;-60
2021/01/07 06:11:40;;;;;;;20.13;8.35;;;;;;;;;;5072650;28;20099;-62
2021/01/07 06:14:05;;;;;;;;;;;;;;;;;;5056783;28;20055;-62
2021/01/07 06:16:32;;;;;;;17.90;7.40;;;;;;;;;;5089882;28;19916;-62
2021/01/07 06:19:16;;;;;;;21.87;6.80;;;;;;;;;;5091374;28;20141;-62
2021/01/07 06:21:47;;;;;;;15.63;6.47;;;;;;;;;;5073031;28;20028;-61
2021/01/07 06:24:16;;;;;;;19.08;6.82;;;;;;;;;;5091319;28;20036;-62
2021/01/07 06:26:44;;;;;;;17.63;7.00;;;;;;;;;;5090629;28;20040;-61
2021/01/07 06:29:11;;;;;;;15.18;6.35;;;;;;;;;;5091327;28;20103;-62
2021/01/07 06:31:37;;;;;;;19.08;7.38;;;;;;;;;;5071779;28;20441;-62
2021/01/07 06:34:03;;;;;;;17.83;7.15;;;;;;;;;;5072197;28;20024;-61
2021/01/07 06:36:39;;;;;;;18.70;7.35;;;;;;;;;;5090024;28;20111;-61
2021/01/07 06:39:05;;;;;;;24.08;8.93;;;;;;;;;;5072973;28;20073;-62
2021/01/07 06:41:30;;;;;;;20.38;10.13;;;;;;;;;;5090182;28;20028;-61
2021/01/07 06:43:56;;;;;;;16.93;7.20;;;;;;;;;;5072893;28;20032;-61
2021/01/07 06:46:41;;;;;;;18.05;8.13;;;;;;;;;;5089871;28;20357;-61
2021/01/07 06:49:17;;;;;;;23.75;9.02;;;;;;;;;;5090627;28;20035;-62
2021/01/07 06:52:03;;;;;;;20.05;8.82;;;;;;;;;;5090474;28;20051;-60
2021/01/07 06:54:31;;;;;;;16.77;7.60;;;;;;;;;;5089952;28;20459;-62
2021/01/07 06:56:57;;;;;;;19.77;7.90;;;;;;;;;;5076133;28;20049;-62
2021/01/07 06:59:23;;;;;;;21.60;9.00;;;;;;;;;;5075825;28;20142;-60
2021/01/07 07:01:52;;;;;;;21.67;7.50;;;;;;;;;;5092146;28;20484;-60
2021/01/07 07:04:25;;;;;;;17.90;8.55;;;;;;;;;;5084846;28;20044;-62
2021/01/07 07:06:56;;;;;;;17.33;7.55;;;;;;;;;;5092393;28;20516;-60
2021/01/07 07:09:23;;;;;;;20.73;8.30;;;;;;;;;;5075653;28;20460;-58
2021/01/07 07:11:55;;;;;;;18.17;8.20;;;;;;;;;;5075926;28;20036;-61
2021/01/07 07:14:21;;;;;;;15.43;8.40;;;;;;;;;;5093592;28;20071;-56
2021/01/07 07:16:50;;;;;;;16.58;7.60;;;;;;;;;;5093588;28;20544;-61
2021/01/07 07:19:25;;;;;;;15.57;7.05;;;;;;;;;;5075784;28;20099;-61
2021/01/07 07:22:02;;;;;;;13.95;6.60;;;;;;;;;;5091941;28;20024;-61
2021/01/07 07:24:33;;;;;;;15.15;7.15;;;;;;;;;;5075233;28;20046;-60
2021/01/07 07:27:01;;;;;;;14.15;7.03;;;;;;;;;;5093929;28;20373;-61
2021/01/07 07:29:29;;;;;;;16.30;6.75;;;;;;;;;;5093367;28;20052;-60
2021/01/07 07:31:54;;;;;;;14.90;7.05;;;;;;;;;;5094419;28;20115;-61
2021/01/07 07:34:27;;;;;;;12.57;5.93;;;;;;;;;;5094159;28;20475;-60
2021/01/07 07:36:53;;;;;;;14.23;6.63;;;;;;;;;;5092771;28;20035;-57
2021/01/07 07:39:18;;;;;;;18.77;7.10;;;;;;;;;;5108572;28;20024;-61
2021/01/07 07:41:44;;;;;;;17.53;7.53;;;;;;;;;;5093723;28;20040;-60
2021/01/07 07:44:10;;;;;;;21.48;8.90;;;;;;;;;;5075470;28;20089;-61
2021/01/07 07:46:37;;;;;;;16.55;7.75;;;;;;;;;;5074585;28;20032;-63
2021/01/07 07:49:03;;;;;;;16.10;7.80;;;;;;;;;;5093953;28;20091;-62
2021/01/07 07:51:28;;;;;;;16.30;7.07;;;;;;;;;;5074661;28;20036;-61
2021/01/07 07:54:04;;;;;;;16.23;7.93;;;;;;;;;;5093099;28;20031;-62
2021/01/07 07:56:30;;;;;;;15.05;7.50;;;;;;;;;;5057762;28;20380;-61
2021/01/07 07:58:59;;;;;;;21.83;8.17;;;;;;;;;;5073207;28;20012;-61
2021/01/07 08:01:45;;;;;;;17.20;7.40;;;;;;;;;;5084772;28;20035;-59
2021/01/07 08:04:17;;;;;;;14.50;8.10;;;;;;;;;;5073437;28;20086;-61
2021/01/07 08:06:46;;;;;;;16.33;7.25;;;;;;;;;;5090277;28;20054;-60
2021/01/07 08:09:12;;;;;;;15.85;7.57;;;;;;;;;;5086636;28;20127;-60
2021/01/07 08:11:42;;;;;;;18.20;7.50;;;;;;;;;;5086734;28;20082;-60
2021/01/07 08:14:11;;;;;;;14.00;7.45;;;;;;;;;;5072849;28;20050;-61
2021/01/07 08:16:37;;;;;;;13.20;7.28;;;;;;;;;;5088816;28;20040;-61
2021/01/07 08:19:03;;;;;;;;;;;;;;;;;;5093059;28;20032;-59
2021/01/07 08:21:28;;;;;;;12.17;6.63;;;;;;;;;;5091701;28;19904;-57
2021/01/07 08:24:08;;;;;;;12.77;6.80;;;;;;;;;;5074967;28;20036;-62
2021/01/07 08:26:34;;;;;;;12.13;6.60;;;;;;;;;;5092277;28;20130;-61
2021/01/07 08:29:00;;;;;;;16.98;6.68;;;;;;;;;;5093460;28;20028;-61
2021/01/07 08:31:27;;;;;;;14.40;7.18;;;;;;;;;;5063370;28;20028;-57
2021/01/07 08:33:52;;;;;;;;;;;;;;;;;;5058398;28;20040;-61
2021/01/07 08:36:19;;;;;;;12.60;6.60;;;;;;;;;;5093267;28;19908;-61
2021/01/07 08:38:48;;;;;;;12.32;5.75;;;;;;;;;;5074409;28;20120;-60
2021/01/07 08:41:15;;;;;;;12.55;6.07;;;;;;;;;;5074938;28;20036;-62
2021/01/07 08:43:41;;;;;;;9.98;5.63;;;;;;;;;;5074129;28;20040;-61
2021/01/07 08:46:25;;;;;;;11.90;6.40;;;;;;;;;;5091932;28;20050;-59
2021/01/07 08:48:58;;;;;;;11.95;5.85;;;;;;;;;;5074182;28;20024;-61
2021/01/07 08:51:24;;;;;;;30.13;7.00;;;;;;;;;;5074741;28;20032;-62
2021/01/07 08:53:50;;;;;;;15.40;7.10;;;;;;;;;;5091652;28;20089;-60
2021/01/07 08:56:32;;;;;;;14.93;7.38;;;;;;;;;;5074622;28;20036;-62
2021/01/07 08:59:16;;;;;;;11.45;6.13;;;;;;;;;;5092941;28;20491;-60
2021/01/07 09:04:27;;;;;;;12.50;6.38;;;;;;;;;;5092413;28;20028;-55
2021/01/07 09:06:53;;;;;;;10.27;6.30;;;;;;;;;;5091849;28;20153;-61
2021/01/07 09:09:18;;;;;;;10.23;5.63;;;;;;;;;;5091128;28;20382;-61
2021/01/07 09:11:43;;;;;;;11.47;6.27;;;;;;;;;;5074299;28;20155;-61
2021/01/07 09:14:09;;;;;;;12.00;5.03;;;;;;;;;;5053849;28;20390;-61
2021/01/07 09:16:34;;;;;;;7.67;4.43;;;;;;;;;;5053144;28;20048;-61
2021/01/07 09:19:06;;;;;;;9.00;4.40;;;;;;;;;;5053626;28;20468;-62
2021/01/07 09:21:33;;;;;;;8.45;4.50;;;;;;;;;;5071067;28;20535;-61
2021/01/07 09:23:59;;;;;;;9.45;4.63;;;;;;;;;;5053447;28;20032;-61
2021/01/07 09:26:30;;;;;;;9.93;4.95;;;;;;;;;;5037238;28;20032;-61
2021/01/07 09:28:56;;;;;;;10.15;4.60;;;;;;;;;;5071222;28;20020;-61
2021/01/07 09:31:21;;;;;;;8.65;4.68;;;;;;;;;;5073152;28;20028;-62
2021/01/07 09:33:47;;;;;;;5.77;3.30;;;;;;;;;;5091090;28;20503;-61
2021/01/07 09:36:12;;;;;;;7.00;4.23;;;;;;;;;;5091716;28;20115;-61
2021/01/07 09:38:37;;;;;;;9.13;4.73;;;;;;;;;;5091127;28;20028;-61
2021/01/07 09:41:03;;;;;;;9.30;4.23;;;;;;;;;;5091662;28;20054;-62
2021/01/07 09:43:32;;;;;;;11.43;5.13;;;;;;;;;;5091155;28;20036;-57
2021/01/07 09:45:57;;;;;;;9.18;4.85;;;;;;;;;;5091212;28;20051;-62
2021/01/07 09:48:22;;;;;;;8.83;4.97;;;;;;;;;;5091565;28;20025;-61
2021/01/07 09:50:48;;;;;;;7.37;4.33;;;;;;;;;;5091015;28;20039;-62
2021/01/07 09:53:13;;;;;;;7.20;4.50;;;;;;;;;;5091619;28;20055;-61
2021/01/07 09:55:38;;;;;;;7.67;4.90;;;;;;;;;;5072410;28;20024;-61
2021/01/07 09:58:04;;;;;;;8.37;3.90;;;;;;;;;;5091551;28;20425;-62
2021/01/07 10:00:29;;;;;;;11.00;3.60;;;;;;;;;;5072498;28;20047;-56
2021/01/07 10:02:55;;;;;;;7.37;4.43;;;;;;;;;;5073122;28;20461;-60
2021/01/07 10:05:20;;;;;;;9.10;3.90;;;;;;;;;;5072615;28;20350;-61
2021/01/07 10:07:45;;;;;;;6.50;3.13;;;;;;;;;;5072215;28;20036;-61
2021/01/07 10:10:11;;;;;;;7.27;3.30;;;;;;;;;;5076735;28;20070;-61
2021/01/07 10:12:36;;;;;;;5.87;2.60;;;;;;;;;;5070104;28;20083;-60
2021/01/07 10:15:02;;;;;;;5.93;3.23;;;;;;;;;;5070619;28;20399;-60
2021/01/07 10:17:28;;;;;;;7.40;3.30;;;;;;;;;;5052323;28;20056;-58
2021/01/07 10:19:53;;;;;;;7.25;3.45;;;;;;;;;;5052058;28;20029;-60
2021/01/07 10:22:20;;;;;;;5.57;3.73;;;;;;;;;;5052826;28;20025;-61
2021/01/07 10:24:46;;;;;;;;;;;;;;;;;;5070116;28;20029;-61
2021/01/07 10:27:14;;;;;;;7.63;4.95;;;;;;;;;;5070468;28;19916;-61
2021/01/07 10:29:39;;;;;;;9.65;5.30;;;;;;;;;;5065015;28;20136;-60
2021/01/07 10:32:05;;;;;;;6.77;4.47;;;;;;;;;;5090708;28;20495;-61
2021/01/07 10:34:38;;;;;;;7.78;4.75;;;;;;;;;;5071864;28;20047;-57
2021/01/07 10:37:04;;;;;;;8.98;4.85;;;;;;;;;;5090565;28;20024;-61
2021/01/07 10:39:31;;;;;;;10.23;5.35;;;;;;;;;;5090495;28;20485;-56
2021/01/07 10:41:57;;;;;;;11.60;5.57;;;;;;;;;;5090953;28;20024;-60
2021/01/07 10:44:22;;;;;;;6.95;5.57;;;;;;;;;;5090044;28;20040;-61
2021/01/07 10:46:52;;;;;;;7.37;5.03;;;;;;;;;;5090115;28;20239;-61
2021/01/07 10:49:18;;;;;;;6.63;4.80;;;;;;;;;;5072819;28;20069;-60
2021/01/07 10:51:44;;;;;;;;;;;;;;;;;;5090829;28;20035;-61
2021/01/07 10:54:25;;;;;;;8.03;4.47;;;;;;;;;;5092951;28;20408;-61
2021/01/07 10:57:00;;;;;;;8.52;4.07;;;;;;;;;;5072652;28;20031;-61
2021/01/07 10:59:43;;;;;;;7.22;3.55;;;;;;;;;;5089651;28;20031;-60
2021/01/07 11:02:14;;;;;;;11.10;4.55;;;;;;;;;;5069580;28;20139;-61
2021/01/07 11:04:42;;;;;;;6.18;3.20;;;;;;;;;;5089880;28;20089;-61
2021/01/07 11:07:13;;;;;;;5.20;2.90;;;;;;;;;;5095214;28;20102;-60
2021/01/07 11:09:40;;;;;;;4.45;3.13;;;;;;;;;;5090710;28;20066;-60
2021/01/07 11:12:08;;;;;;;6.80;3.30;;;;;;;;;;5075786;28;20032;-61
2021/01/07 11:14:52;;;;;;;5.15;2.90;;;;;;;;;;5091169;28;20040;-59
2021/01/07 11:17:23;;;;;;;4.22;2.80;;;;;;;;;;5110625;28;20068;-61
2021/01/07 11:19:49;;;;;;;4.32;2.33;;;;;;;;;;5091583;28;20050;-61
2021/01/07 11:22:17;;;;;;;7.27;3.10;;;;;;;;;;5110411;28;20080;-61
2021/01/07 11:24:44;;;;;;;7.88;2.42;;;;;;;;;;5091349;28;20486;-60
2021/01/07 11:27:10;;;;;;;5.17;2.80;;;;;;;;;;5067533;28;20024;-60
2021/01/07 11:29:36;;;;;;;4.22;2.50;;;;;;;;;;5088389;28;20253;-60
2021/01/07 11:32:02;;;;;;;5.40;2.10;;;;;;;;;;5071522;28;20043;-61
2021/01/07 11:34:28;;;;;;;5.15;2.65;;;;;;;;;;5071642;28;20043;-60
2021/01/07 11:37:00;;;;;;;7.70;1.92;;;;;;;;;;5089170;28;20027;-61
2021/01/07 11:39:32;;;;;;;5.15;2.35;;;;;;;;;;5085331;28;20499;-59
2021/01/07 11:42:06;;;;;;;3.55;1.80;;;;;;;;;;5072476;28;20028;-59
2021/01/07 11:44:53;;;;;;;4.25;1.83;;;;;;;;;;5092718;28;20020;-55
2021/01/07 11:47:20;;;;;;;3.88;1.85;;;;;;;;;;5074839;28;20094;-60
2021/01/07 11:49:45;;;;;;;4.50;1.90;;;;;;;;;;5074156;28;20387;-60
2021/01/07 11:52:11;;;;;;;4.15;1.90;;;;;;;;;;5093339;28;20032;-61
2021/01/07 11:54:38;;;;;;;7.30;3.58;;;;;;;;;;5092365;28;20456;-60
2021/01/07 11:57:05;;;;;;;4.10;2.08;;;;;;;;;;5092614;28;20028;-61
2021/01/07 11:59:30;;;;;;;4.97;2.45;;;;;;;;;;5099863;28;20463;-58
2021/01/07 12:01:56;;;;;;;4.63;1.87;;;;;;;;;;5092671;28;20024;-61
2021/01/07 12:04:23;;;;;;;7.72;2.53;;;;;;;;;;5092520;28;20089;-60
2021/01/07 12:06:54;;;;;;;5.80;2.75;;;;;;;;;;5092174;28;20460;-60
2021/01/07 12:09:22;;;;;;;5.88;2.97;;;;;;;;;;5072764;28;20034;-61
2021/01/07 12:11:59;;;;;;;7.13;2.50;;;;;;;;;;5070847;28;20028;-61
2021/01/07 12:14:25;;;;;;;5.30;2.30;;;;;;;;;;5074365;28;20036;-61
2021/01/07 12:16:51;;;;;;;;;;;;;;;;;;5092060;28;20036;-61
2021/01/07 12:19:16;;;;;;;6.00;3.07;;;;;;;;;;5092640;28;19919;-60
2021/01/07 12:21:42;;;;;;;8.38;3.47;;;;;;;;;;5091843;28;20027;-61
2021/01/07 12:24:10;;;;;;;8.50;3.75;;;;;;;;;;5074507;28;20028;-61
2021/01/07 12:26:36;;;;;;;8.82;3.60;;;;;;;;;;5091215;28;20515;-55
2021/01/07 12:29:01;;;;;;;9.63;5.00;;;;;;;;;;5089583;28;20099;-59
2021/01/07 12:31:27;;;;;;;7.20;3.85;;;;;;;;;;5090606;28;20048;-59
2021/01/07 12:34:00;;;;;;;6.23;4.07;;;;;;;;;;5073164;28;20352;-62
2021/01/07 12:36:34;;;;;;;13.15;3.65;;;;;;;;;;5099334;28;20098;-61
2021/01/07 12:39:23;;;;;;;15.63;3.88;;;;;;;;;;5071980;28;20033;-60
2021/01/07 12:41:51;;;;;;;6.93;3.13;;;;;;;;;;5070642;28;20111;-60
2021/01/07 12:44:20;;;;;;;9.90;2.97;;;;;;;;;;5061516;28;20525;-61
2021/01/07 12:46:47;;;;;;;7.40;2.50;;;;;;;;;;5081497;28;20032;-61
2021/01/07 12:49:17;;;;;;;6.07;2.72;;;;;;;;;;5062358;28;20058;-61
2021/01/07 12:51:43;;;;;;;4.97;2.58;;;;;;;;;;5107066;28;20032;-61
2021/01/07 12:54:09;;;;;;;8.40;2.58;;;;;;;;;;5091433;28;20036;-61
2021/01/07 12:56:53;;;;;;;7.95;3.10;;;;;;;;;;5091570;28;20038;-56
2021/01/07 12:59:22;;;;;;;5.68;2.58;;;;;;;;;;5073703;28;20364;-60
2021/01/07 13:01:52;;;;;;;7.13;2.78;;;;;;;;;;5107402;28;20081;-62
2021/01/07 13:04:38;;;;;;;6.00;1.80;;;;;;;;;;5059253;28;20028;-61
2021/01/07 13:07:03;;;;;;;8.68;2.40;;;;;;;;;;5091513;28;20056;-63
2021/01/07 13:09:31;;;;;;;5.18;1.92;;;;;;;;;;5073792;28;20035;-62
2021/01/07 13:11:58;;;;;;;4.63;1.73;;;;;;;;;;5073050;28;20035;-62
2021/01/07 13:14:26;;;;;;;6.55;1.95;;;;;;;;;;5092601;28;20475;-62
2021/01/07 13:16:53;;;;;;;5.93;1.73;;;;;;;;;;5091489;28;20059;-62
2021/01/07 13:19:20;;;;;;;5.72;2.17;;;;;;;;;;5092743;28;20032;-61
2021/01/07 13:21:45;;;;;;;;;;;;;;;;;;5073762;28;20032;-62
2021/01/07 13:24:11;;;;;;;6.00;1.90;;;;;;;;;;5092309;28;19915;-60
2021/01/07 13:26:36;;;;;;;12.50;2.73;;;;;;;;;;5091604;28;20152;-55
2021/01/07 13:29:01;;;;;;;11.13;2.50;;;;;;;;;;5073211;28;20417;-61
2021/01/07 13:31:27;;;;;;;10.87;2.77;;;;;;;;;;5073762;28;20119;-59
2021/01/07 13:33:52;;;;;;;6.03;1.70;;;;;;;;;;5091225;28;20075;-60
2021/01/07 13:36:20;;;;;;;8.00;2.30;;;;;;;;;;5073793;28;20028;-61
2021/01/07 13:38:46;;;;;;;10.40;2.25;;;;;;;;;;5073031;28;20020;-60
2021/01/07 13:41:11;;;;;;;8.73;2.17;;;;;;;;;;5091134;28;20032;-61
2021/01/07 13:43:39;;;;;;;9.93;2.50;;;;;;;;;;5072731;28;20036;-56
2021/01/07 13:46:05;;;;;;;10.80;1.88;;;;;;;;;;5073887;28;20020;-62
2021/01/07 13:48:32;;;;;;;7.03;2.15;;;;;;;;;;5091670;28;20031;-60
2021/01/07 13:50:59;;;;;;;7.93;2.13;;;;;;;;;;5090834;28;20020;-61
2021/01/07 13:53:25;;;;;;;14.75;2.10;;;;;;;;;;5073349;28;20035;-62
2021/01/07 13:55:51;;;;;;;9.90;2.20;;;;;;;;;;5090246;28;20384;-61
2021/01/07 13:58:18;;;;;;;8.60;2.38;;;;;;;;;;5090761;28;20484;-61
2021/01/07 14:00:43;;;;;;;;;;;;;;;;;;5072212;28;20035;-61
2021/01/07 14:03:09;;;;;;;10.87;2.10;;;;;;;;;;5091024;28;19908;-61
2021/01/07 14:05:36;;;;;;;16.08;2.33;;;;;;;;;;5072520;28;20030;-62
2021/01/07 14:08:09;;;;;;;9.35;2.40;;;;;;;;;;5090517;28;20043;-62
2021/01/07 14:10:35;;;;;;;7.22;1.95;;;;;;;;;;5091148;28;20031;-60
2021/01/07 14:13:01;;;;;;;11.52;2.33;;;;;;;;;;5071675;28;20052;-60
2021/01/07 14:15:27;;;;;;;8.85;2.83;;;;;;;;;;5091051;28;20071;-60
2021/01/07 14:17:52;;;;;;;8.90;3.17;;;;;;;;;;5090551;28;20055;-61
2021/01/07 14:20:18;;;;;;;8.15;3.65;;;;;;;;;;5091044;28;20472;-60
2021/01/07 14:22:44;;;;;;;14.73;3.27;;;;;;;;;;5090583;28;20032;-60
2021/01/07 14:25:11;;;;;;;10.32;3.40;;;;;;;;;;5091160;28;20020;-61
2021/01/07 14:27:42;;;;;;;7.22;3.22;;;;;;;;;;5090634;28;20097;-61
2021/01/07 14:30:08;;;;;;;9.50;3.22;;;;;;;;;;5072881;28;20043;-61
2021/01/07 14:32:34;;;;;;;14.82;3.30;;;;;;;;;;5056181;28;20388;-61
2021/01/07 14:35:00;;;;;;;13.55;3.53;;;;;;;;;;5072012;28;20035;-61
2021/01/07 14:37:28;;;;;;;10.25;2.47;;;;;;;;;;5072793;28;20053;-59
2021/01/07 14:39:54;;;;;;;11.85;3.53;;;;;;;;;;5071802;28;20480;-60
2021/01/07 14:42:20;;;;;;;11.57;2.72;;;;;;;;;;5090792;28;20039;-60